createdAt,value
2018-12-08T00:00:40.584Z,13.20
2018-12-08T00:03:21.410Z,18.50
2018-12-08T00:05:58.665Z,21.57
2018-12-08T00:08:39.431Z,12.67
2018-12-08T00:11:18.277Z,13.33
2018-12-08T00:13:56.876Z,15.77
2018-12-08T00:16:38.500Z,21.87
2018-12-08T00:22:22.294Z,17.53
2018-12-08T00:25:01.036Z,20.93
2018-12-08T00:27:39.510Z,14.93
2018-12-08T00:30:27.823Z,17.30
2018-12-08T00:33:09.451Z,12.87
2018-12-08T00:35:50.469Z,16.40
2018-12-08T00:38:30.370Z,15.03
2018-12-08T00:41:08.604Z,15.27
2018-12-08T00:46:49.874Z,12.27
2018-12-08T00:49:28.152Z,15.07
2018-12-08T00:52:08.989Z,11.07
2018-12-08T00:54:45.635Z,15.70
2018-12-08T00:57:26.534Z,15.97
2018-12-08T01:00:03.737Z,16.73
2018-12-08T01:05:52.526Z,16.67
2018-12-08T01:08:33.854Z,16.43
2018-12-08T01:11:12.892Z,11.43
2018-12-08T01:13:54.582Z,19.87
2018-12-08T01:19:34.698Z,17.20
2018-12-08T01:22:16.561Z,20.83
2018-12-08T01:24:57.724Z,17.37
2018-12-08T01:27:40.935Z,16.60
2018-12-08T01:33:22.698Z,13.20
2018-12-08T01:36:03.534Z,12.93
2018-12-08T01:38:45.006Z,20.00
2018-12-08T01:41:23.748Z,19.53
2018-12-08T01:44:02.294Z,17.10
2018-12-08T01:46:41.394Z,11.53
2018-12-08T01:49:23.094Z,15.30
2018-12-08T01:52:05.097Z,15.63
2018-12-08T01:54:43.621Z,13.53
2018-12-08T02:00:27.467Z,12.50
2018-12-08T02:06:11.264Z,14.37
2018-12-08T02:08:52.657Z,14.87
2018-12-08T02:11:33.807Z,11.57
2018-12-08T02:14:14.606Z,10.53
2018-12-08T02:16:55.358Z,11.30
2018-12-08T02:19:36.563Z,16.33
2018-12-08T02:22:13.654Z,12.10
2018-12-08T02:24:54.573Z,14.93
2018-12-08T02:30:36.462Z,8.97
2018-12-08T02:33:14.982Z,9.53
2018-12-08T02:35:54.191Z,10.87
2018-12-08T02:38:36.679Z,12.57
2018-12-08T02:44:18.439Z,10.40
2018-12-08T02:46:57.459Z,14.33
2018-12-08T02:49:40.847Z,13.67
2018-12-08T02:52:19.353Z,17.10
2018-12-08T02:54:58.223Z,15.00
2018-12-08T02:57:37.571Z,16.20
2018-12-08T03:00:19.122Z,12.03
2018-12-08T03:02:58.062Z,4.83
2018-12-08T03:05:35.390Z,12.77
2018-12-08T03:11:17.659Z,11.27
2018-12-08T03:13:56.081Z,14.87
2018-12-08T03:19:45.921Z,13.07
2018-12-08T03:25:30.059Z,13.43
2018-12-08T03:31:09.636Z,12.30
2018-12-08T03:33:48.409Z,11.40
2018-12-08T03:36:23.737Z,17.33
2018-12-08T03:38:59.186Z,15.60
2018-12-08T03:41:34.828Z,18.17
2018-12-08T03:44:10.319Z,12.03
2018-12-08T03:46:45.558Z,13.43
2018-12-08T03:49:20.892Z,14.93
2018-12-08T03:51:56.113Z,19.07
2018-12-08T03:54:37.484Z,15.13
2018-12-08T03:57:12.707Z,12.90
2018-12-08T03:59:47.893Z,14.90
2018-12-08T04:02:23.093Z,16.43
2018-12-08T04:04:58.521Z,13.97
2018-12-08T04:07:34.002Z,18.13
2018-12-08T04:10:12.594Z,19.83
2018-12-08T04:12:48.015Z,17.67
2018-12-08T04:15:23.351Z,20.03
2018-12-08T04:17:58.586Z,11.70
2018-12-08T04:20:34.146Z,9.93
2018-12-08T04:23:09.344Z,11.03
2018-12-08T04:25:44.755Z,14.07
2018-12-08T04:28:20.205Z,9.93
2018-12-08T04:30:55.478Z,14.40
2018-12-08T04:33:30.732Z,12.43
2018-12-08T04:36:06.098Z,12.70
2018-12-08T04:38:41.314Z,17.77
2018-12-08T04:41:16.668Z,13.80
2018-12-08T04:43:51.922Z,12.60
2018-12-08T04:46:27.236Z,16.30
2018-12-08T04:49:02.569Z,11.30
2018-12-08T04:51:39.153Z,14.00
2018-12-08T04:54:16.326Z,20.73
2018-12-08T04:56:57.451Z,18.87
2018-12-08T04:59:38.281Z,19.53
2018-12-08T05:02:29.354Z,17.10
2018-12-08T05:05:05.046Z,13.60
2018-12-08T05:07:44.221Z,15.33
2018-12-08T05:10:33.862Z,13.90
2018-12-08T05:13:12.336Z,17.63
2018-12-08T05:18:59.862Z,18.77
2018-12-08T05:24:40.499Z,15.77
2018-12-08T05:27:25.366Z,14.90
2018-12-08T05:30:20.441Z,17.80
2018-12-08T05:32:55.708Z,19.50
2018-12-08T05:38:36.576Z,12.70
2018-12-08T05:41:11.843Z,16.60
2018-12-08T05:43:47.078Z,14.43
2018-12-08T05:46:34.757Z,17.00
2018-12-08T05:49:21.170Z,19.03
2018-12-08T05:51:56.501Z,16.60
2018-12-08T05:54:31.778Z,13.57
2018-12-08T05:57:06.979Z,16.13
2018-12-08T05:59:45.372Z,14.27
2018-12-08T06:02:24.584Z,13.43
2018-12-08T06:08:00.528Z,15.23
2018-12-08T06:10:35.896Z,15.13
2018-12-08T06:13:11.339Z,15.57
2018-12-08T06:15:52.848Z,15.90
2018-12-08T06:24:45.623Z,11.77
2018-12-08T06:27:29.147Z,16.20
2018-12-08T06:30:04.968Z,17.73
2018-12-08T06:32:40.204Z,15.73
2018-12-08T06:35:15.467Z,16.87
2018-12-08T06:37:50.823Z,17.33
2018-12-08T06:40:29.300Z,14.73
2018-12-08T06:43:03.487Z,21.80
2018-12-08T06:45:38.889Z,13.00
2018-12-08T06:48:24.497Z,13.27
2018-12-08T06:50:59.776Z,18.87
2018-12-08T06:53:47.261Z,13.57
2018-12-08T06:56:22.493Z,17.03
2018-12-08T06:58:57.859Z,17.77
2018-12-08T07:01:33.103Z,16.37
2018-12-08T07:04:08.318Z,14.07
2018-12-08T07:06:43.579Z,12.63
2018-12-08T07:09:18.994Z,16.77
2018-12-08T07:11:54.396Z,16.40
2018-12-08T07:14:34.809Z,16.97
2018-12-08T07:17:10.234Z,14.13
2018-12-08T07:19:45.621Z,20.87
2018-12-08T07:22:21.112Z,15.77
2018-12-08T07:24:56.528Z,21.10
2018-12-08T07:27:32.005Z,17.17
2018-12-08T07:30:09.799Z,19.33
2018-12-08T07:32:45.196Z,18.30
2018-12-08T07:35:20.411Z,16.27
2018-12-08T07:37:55.803Z,17.17
2018-12-08T07:40:31.165Z,15.50
2018-12-08T07:43:06.506Z,18.93
2018-12-08T07:45:41.885Z,15.53
2018-12-08T07:48:22.340Z,16.67
2018-12-08T07:50:57.793Z,15.10
2018-12-08T07:53:33.114Z,16.53
2018-12-08T07:56:08.410Z,20.37
2018-12-08T07:58:43.809Z,16.23
2018-12-08T08:01:19.237Z,12.10
2018-12-08T08:03:54.587Z,16.23
2018-12-08T08:06:29.809Z,14.23
2018-12-08T08:09:06.742Z,12.80
2018-12-08T08:11:42.120Z,12.97
2018-12-08T08:14:17.497Z,17.87
2018-12-08T08:16:52.917Z,13.37
2018-12-08T08:19:28.432Z,11.63
2018-12-08T08:22:03.828Z,19.07
2018-12-08T08:24:39.224Z,18.23
2018-12-08T08:27:14.568Z,18.73
2018-12-08T08:29:50.087Z,13.60
2018-12-08T08:32:25.482Z,14.30
2018-12-08T08:35:00.699Z,19.27
2018-12-08T08:37:35.951Z,15.57
2018-12-08T08:40:12.496Z,16.03
2018-12-08T08:42:47.680Z,15.73
2018-12-08T08:45:22.942Z,14.57
2018-12-08T08:47:58.289Z,14.37
2018-12-08T08:50:33.666Z,15.63
2018-12-08T08:53:09.024Z,12.37
2018-12-08T08:55:48.185Z,16.07
2018-12-08T08:58:30.553Z,27.83
2018-12-08T09:01:09.727Z,16.53
2018-12-08T09:03:45.008Z,17.90
2018-12-08T09:06:26.826Z,15.40
2018-12-08T09:09:02.113Z,21.80
2018-12-08T09:12:00.649Z,21.13
2018-12-08T09:14:35.844Z,14.70
2018-12-08T09:17:16.682Z,18.60
2018-12-08T09:22:51.053Z,13.43
2018-12-08T09:25:44.656Z,15.73
2018-12-08T09:28:26.940Z,19.70
2018-12-08T09:31:02.367Z,14.37
2018-12-08T09:33:37.687Z,13.00
2018-12-08T09:36:13.051Z,17.37
2018-12-08T09:38:49.639Z,17.53
2018-12-08T09:41:25.043Z,17.47
2018-12-08T09:44:00.601Z,17.27
2018-12-08T09:46:35.926Z,19.80
2018-12-08T09:49:11.325Z,13.57
2018-12-08T09:51:49.937Z,14.50
2018-12-08T09:54:25.522Z,16.00
2018-12-08T09:57:00.897Z,15.00
2018-12-08T10:02:42.465Z,16.17
2018-12-08T10:05:18.911Z,16.20
2018-12-08T10:07:54.305Z,14.63
2018-12-08T10:10:29.678Z,14.90
2018-12-08T10:13:05.214Z,18.13
2018-12-08T10:15:40.422Z,13.97
2018-12-08T10:18:15.804Z,12.27
2018-12-08T10:20:51.023Z,17.40
2018-12-08T10:23:26.326Z,14.37
2018-12-08T10:26:01.699Z,14.27
2018-12-08T10:28:37.918Z,10.93
2018-12-08T10:31:13.474Z,16.87
2018-12-08T10:33:48.963Z,10.83
2018-12-08T10:36:24.194Z,14.70
2018-12-08T10:38:59.574Z,7.27
2018-12-08T10:41:35.047Z,11.93
2018-12-08T10:44:10.500Z,11.67
2018-12-08T10:46:45.883Z,14.23
2018-12-08T10:49:21.188Z,12.43
2018-12-08T10:51:56.588Z,13.30
2018-12-08T10:54:33.904Z,12.47
2018-12-08T10:57:09.529Z,13.77
2018-12-08T10:59:44.907Z,9.83
2018-12-08T11:02:25.627Z,14.73
2018-12-08T11:05:00.856Z,10.40
2018-12-08T11:07:36.239Z,13.13
2018-12-08T11:10:12.638Z,11.63
2018-12-08T11:12:48.999Z,12.33
2018-12-08T11:15:25.366Z,11.20
2018-12-08T11:18:02.423Z,8.40
2018-12-08T11:20:37.894Z,7.80
2018-12-08T11:23:13.511Z,7.67
2018-12-08T11:25:48.704Z,9.43
2018-12-08T11:28:24.143Z,12.20
2018-12-08T11:30:59.447Z,4.77
2018-12-08T11:33:35.848Z,5.33
2018-12-08T11:36:11.175Z,5.93
2018-12-08T11:38:46.651Z,9.27
2018-12-08T11:41:21.847Z,9.77
2018-12-08T11:43:57.087Z,8.00
2018-12-08T11:46:32.375Z,11.63
2018-12-08T11:49:07.645Z,12.17
2018-12-08T11:51:43.020Z,12.37
2018-12-08T11:54:20.488Z,10.37
2018-12-08T11:56:55.855Z,8.33
2018-12-08T11:59:31.194Z,8.53
2018-12-08T12:02:06.592Z,7.30
2018-12-08T12:04:43.905Z,8.67
2018-12-08T12:07:19.359Z,10.50
2018-12-08T12:09:56.412Z,7.97
2018-12-08T12:12:44.415Z,11.17
2018-12-08T12:18:26.299Z,9.50
2018-12-08T12:21:06.869Z,9.03
2018-12-08T12:23:48.145Z,13.13
2018-12-08T12:26:24.819Z,8.67
2018-12-08T12:29:01.782Z,7.93
2018-12-08T12:31:36.988Z,7.13
2018-12-08T12:34:12.328Z,8.73
2018-12-08T12:36:48.913Z,8.77
2018-12-08T12:39:24.385Z,8.27
2018-12-08T12:47:42.722Z,8.23
2018-12-08T12:50:23.722Z,8.83
2018-12-08T12:53:05.089Z,8.20
2018-12-08T12:55:45.090Z,9.90
2018-12-08T12:58:23.897Z,9.23
2018-12-08T13:01:05.426Z,9.93
2018-12-08T13:03:46.551Z,8.00
2018-12-08T13:06:25.162Z,10.63
2018-12-08T13:09:02.140Z,7.83
2018-12-08T13:11:44.894Z,11.53
2018-12-08T13:14:26.388Z,9.70
2018-12-08T13:17:07.529Z,8.73
2018-12-08T13:19:48.651Z,9.77
2018-12-08T13:22:29.524Z,19.50
2018-12-08T13:25:21.584Z,17.27
2018-12-08T13:31:03.810Z,14.57
2018-12-08T13:33:46.087Z,15.60
2018-12-08T13:36:27.009Z,12.07
2018-12-08T13:42:13.651Z,13.30
2018-12-08T13:45:00.160Z,12.43
2018-12-08T13:47:41.607Z,19.93
2018-12-08T13:50:22.762Z,11.80
2018-12-08T13:53:04.452Z,10.80
2018-12-08T13:55:45.746Z,14.00
2018-12-08T13:58:26.714Z,11.27
2018-12-08T14:01:07.946Z,10.77
2018-12-08T14:03:44.907Z,11.70
2018-12-08T14:06:26.562Z,12.67
2018-12-08T14:09:08.293Z,11.00
2018-12-08T14:11:49.838Z,14.83
2018-12-08T14:14:35.941Z,11.30
2018-12-08T14:17:17.116Z,9.63
2018-12-08T14:19:52.310Z,11.57
2018-12-08T14:22:33.107Z,9.47
2018-12-08T14:25:08.345Z,13.43
2018-12-08T14:27:44.206Z,8.70
2018-12-08T14:30:19.535Z,9.07
2018-12-08T14:32:54.795Z,9.40
2018-12-08T14:35:30.160Z,17.40
2018-12-08T14:38:05.640Z,10.20
2018-12-08T14:40:40.938Z,12.87
2018-12-08T14:43:16.345Z,7.80
2018-12-08T14:45:51.629Z,12.13
2018-12-08T14:48:27.163Z,14.43
2018-12-08T14:51:02.753Z,14.90
2018-12-08T14:53:38.109Z,14.73
2018-12-08T14:56:13.791Z,7.40
2018-12-08T14:58:50.132Z,10.30
2018-12-08T15:01:25.513Z,8.73
2018-12-08T15:04:00.966Z,11.00
2018-12-08T15:06:54.644Z,11.00
2018-12-08T15:09:39.869Z,13.77
2018-12-08T15:12:20.860Z,10.93
2018-12-08T15:14:56.204Z,9.60
2018-12-08T15:20:34.622Z,10.17
2018-12-08T15:23:09.786Z,6.10
2018-12-08T15:25:45.004Z,16.97
2018-12-08T15:31:26.237Z,10.53
2018-12-08T15:34:01.634Z,13.13
2018-12-08T15:36:36.970Z,9.43
2018-12-08T15:39:12.606Z,14.43
2018-12-08T15:41:48.022Z,13.37
2018-12-08T15:44:23.547Z,11.53
2018-12-08T15:46:59.046Z,9.93
2018-12-08T15:49:34.343Z,8.93
2018-12-08T15:52:09.763Z,12.33
2018-12-08T15:54:44.961Z,13.63
2018-12-08T15:57:20.258Z,12.43
2018-12-08T16:03:01.496Z,17.17
2018-12-08T16:05:40.412Z,10.80
2018-12-08T16:08:22.482Z,15.53
2018-12-08T16:14:03.947Z,12.73
2018-12-08T16:16:45.050Z,13.87
2018-12-08T16:19:20.454Z,12.37
2018-12-08T16:28:13.716Z,16.20
2018-12-08T16:30:49.132Z,12.73
2018-12-08T16:33:24.565Z,11.93
2018-12-08T16:36:06.004Z,16.13
2018-12-08T16:41:44.714Z,18.37
2018-12-08T16:44:25.927Z,12.30
2018-12-08T16:47:01.271Z,17.60
2018-12-08T16:49:40.222Z,16.50
2018-12-08T16:52:31.956Z,12.97
2018-12-08T17:01:25.988Z,12.50
2018-12-08T17:07:01.423Z,14.87
2018-12-08T17:12:59.716Z,13.13
2018-12-08T17:18:44.697Z,14.37
2018-12-08T17:21:27.349Z,16.80
2018-12-08T17:24:02.521Z,19.80
2018-12-08T17:29:43.857Z,15.10
2018-12-08T17:32:19.095Z,19.00
2018-12-08T17:34:55.312Z,12.70
2018-12-08T17:37:30.788Z,18.63
2018-12-08T17:40:16.274Z,17.57
2018-12-08T17:42:57.299Z,20.00
2018-12-08T17:45:32.532Z,16.13
2018-12-08T17:48:17.589Z,14.70
2018-12-08T17:50:52.981Z,16.83
2018-12-08T17:53:31.618Z,12.23
2018-12-08T17:56:12.683Z,18.20
2018-12-08T17:58:48.057Z,15.07
2018-12-08T18:01:24.898Z,15.47
2018-12-08T18:07:06.061Z,11.57
2018-12-08T18:09:41.408Z,7.80
2018-12-08T18:18:26.166Z,12.93
2018-12-08T18:21:01.630Z,11.43
2018-12-08T18:23:43.040Z,15.80
2018-12-08T18:26:30.312Z,17.17
2018-12-08T18:29:23.831Z,12.20
2018-12-08T18:34:58.785Z,13.77
2018-12-08T18:37:34.128Z,11.37
2018-12-08T18:40:09.921Z,9.30
2018-12-08T18:43:01.410Z,12.37
2018-12-08T18:45:41.413Z,12.07
2018-12-08T18:48:16.983Z,18.37
2018-12-08T18:51:03.792Z,15.00
2018-12-08T18:59:53.824Z,13.37
2018-12-08T19:05:34.472Z,15.60
2018-12-08T19:08:10.079Z,12.50
2018-12-08T19:11:03.936Z,16.63
2018-12-08T19:13:48.248Z,16.13
2018-12-08T19:16:27.051Z,16.10
2018-12-08T19:19:24.751Z,19.07
2018-12-08T19:22:13.299Z,19.07
2018-12-08T19:27:54.119Z,18.67
2018-12-08T19:30:29.414Z,18.87
2018-12-08T19:33:14.512Z,17.13
2018-12-08T19:35:52.969Z,19.10
2018-12-08T19:38:46.040Z,21.63
2018-12-08T19:47:38.265Z,18.67
2018-12-08T19:50:16.817Z,18.77
2018-12-08T19:58:30.188Z,24.77
2018-12-08T20:01:09.604Z,24.07
2018-12-08T20:03:48.760Z,26.83
2018-12-08T20:09:29.973Z,15.00
2018-12-08T20:12:05.362Z,17.97
2018-12-08T20:14:40.704Z,16.50
2018-12-08T20:17:15.911Z,17.93
2018-12-08T20:19:51.528Z,21.23
2018-12-08T20:22:26.889Z,18.37
2018-12-08T20:25:02.396Z,18.30
2018-12-08T20:27:37.732Z,17.20
2018-12-08T20:30:13.097Z,20.17
2018-12-08T20:32:48.527Z,17.20
2018-12-08T20:35:23.722Z,16.03
2018-12-08T20:37:58.984Z,20.63
2018-12-08T20:43:39.862Z,17.17
2018-12-08T20:46:15.240Z,17.13
2018-12-08T20:48:54.378Z,19.03
2018-12-08T20:51:29.619Z,23.47
2018-12-08T20:54:05.023Z,26.10
2018-12-08T20:56:40.344Z,23.67
2018-12-08T20:59:15.881Z,27.33
2018-12-08T21:01:51.185Z,22.67
2018-12-08T21:04:26.414Z,28.30
2018-12-08T21:07:01.866Z,21.23
2018-12-08T21:09:37.157Z,28.20
2018-12-08T21:12:12.459Z,24.23
2018-12-08T21:14:47.827Z,29.27
2018-12-08T21:17:23.182Z,22.50
2018-12-08T21:19:58.960Z,24.27
2018-12-08T21:22:34.341Z,28.60
2018-12-08T21:25:09.882Z,33.13
2018-12-08T21:27:45.266Z,30.13
2018-12-08T21:30:20.469Z,24.23
2018-12-08T21:32:55.750Z,26.27
2018-12-08T21:35:33.590Z,26.27
2018-12-08T21:38:09.206Z,34.50
2018-12-08T21:43:50.896Z,26.73
2018-12-08T21:46:32.435Z,35.03
2018-12-08T21:49:23.948Z,26.73
2018-12-08T21:52:15.996Z,28.57
2018-12-08T21:55:03.190Z,26.83
2018-12-08T21:57:38.418Z,29.83
2018-12-08T22:00:13.862Z,25.10
2018-12-08T22:02:49.513Z,31.27
2018-12-08T22:05:24.785Z,24.17
2018-12-08T22:08:02.194Z,27.43
2018-12-08T22:10:37.538Z,25.97
2018-12-08T22:13:12.725Z,23.73
2018-12-08T22:15:48.878Z,24.67
2018-12-08T22:18:24.191Z,21.33
2018-12-08T22:21:00.957Z,22.90
2018-12-08T22:23:36.430Z,23.73
2018-12-08T22:26:11.693Z,21.40
2018-12-08T22:28:47.150Z,15.77
2018-12-08T22:31:22.511Z,19.90
2018-12-08T22:33:57.840Z,18.57
2018-12-08T22:36:33.082Z,18.80
2018-12-08T22:39:08.486Z,22.13
2018-12-08T22:41:43.739Z,20.20
2018-12-08T22:44:19.124Z,19.43
2018-12-08T22:46:54.477Z,19.53
2018-12-08T22:49:29.811Z,25.10
2018-12-08T22:52:05.315Z,23.43
2018-12-08T22:54:47.943Z,22.83
2018-12-08T22:57:24.004Z,19.17
2018-12-08T22:59:59.277Z,17.23
2018-12-08T23:02:34.665Z,15.13
2018-12-08T23:05:11.307Z,16.33
2018-12-08T23:07:46.680Z,17.87
2018-12-08T23:10:21.926Z,17.33
2018-12-08T23:12:57.349Z,14.57
2018-12-08T23:15:32.803Z,15.50
2018-12-08T23:18:07.961Z,15.17
2018-12-08T23:20:43.406Z,14.60
2018-12-08T23:23:18.791Z,15.70
2018-12-08T23:25:54.165Z,11.43
2018-12-08T23:28:29.384Z,12.23
2018-12-08T23:31:04.751Z,10.40
2018-12-08T23:33:40.188Z,10.63
2018-12-08T23:36:15.543Z,12.00
2018-12-08T23:38:50.779Z,12.50
2018-12-08T23:41:25.965Z,10.23
2018-12-08T23:44:01.378Z,9.77
2018-12-08T23:46:36.645Z,11.63
2018-12-08T23:49:13.273Z,9.40
2018-12-08T23:51:48.713Z,10.80
2018-12-08T23:54:23.912Z,11.27
2018-12-08T23:56:59.448Z,11.53
2018-12-08T23:59:34.786Z,11.73
